sensor_id;sensor_type;location;lat;lon;timestamp;pressure;altitude;pressure_sealevel;temperature
18161;BMP280;9205;52.032;4.314;2023-07-24T00:01:40;100328.84;;;20.15
18161;BMP280;9205;52.032;4.314;2023-07-24T00:04:07;100312.50;;;20.27
18161;BMP280;9205;52.032;4.314;2023-07-24T00:06:35;100309.22;;;20.25
18161;BMP280;9205;52.032;4.314;2023-07-24T00:09:02;100316.03;;;20.26
18161;BMP280;9205;52.032;4.314;2023-07-24T00:11:29;100313.34;;;20.27
18161;BMP280;9205;52.032;4.314;2023-07-24T00:13:57;100306.22;;;20.31
18161;BMP280;9205;52.032;4.314;2023-07-24T00:16:24;100304.97;;;20.24
18161;BMP280;9205;52.032;4.314;2023-07-24T00:18:53;100307.97;;;20.18
18161;BMP280;9205;52.032;4.314;2023-07-24T00:21:20;100316.94;;;20.12
18161;BMP280;9205;52.032;4.314;2023-07-24T00:23:47;100317.19;;;20.09
18161;BMP280;9205;52.032;4.314;2023-07-24T00:26:14;100308.00;;;20.05
18161;BMP280;9205;52.032;4.314;2023-07-24T00:28:42;100298.00;;;20.01
18161;BMP280;9205;52.032;4.314;2023-07-24T00:31:09;100294.59;;;20.00
18161;BMP280;9205;52.032;4.314;2023-07-24T00:33:36;100294.09;;;19.95
18161;BMP280;9205;52.032;4.314;2023-07-24T00:36:05;100289.09;;;19.92
18161;BMP280;9205;52.032;4.314;2023-07-24T00:38:33;100289.56;;;19.99
18161;BMP280;9205;52.032;4.314;2023-07-24T00:41:00;100281.59;;;20.02
18161;BMP280;9205;52.032;4.314;2023-07-24T00:43:27;100291.28;;;19.98
18161;BMP280;9205;52.032;4.314;2023-07-24T00:45:56;100286.75;;;20.02
18161;BMP280;9205;52.032;4.314;2023-07-24T00:48:24;100274.38;;;20.07
18161;BMP280;9205;52.032;4.314;2023-07-24T00:50:51;100277.28;;;20.02
18161;BMP280;9205;52.032;4.314;2023-07-24T00:53:20;100279.13;;;20.00
18161;BMP280;9205;52.032;4.314;2023-07-24T00:55:48;100272.13;;;20.02
18161;BMP280;9205;52.032;4.314;2023-07-24T00:58:16;100275.94;;;19.97
18161;BMP280;9205;52.032;4.314;2023-07-24T01:00:44;100266.84;;;19.91
18161;BMP280;9205;52.032;4.314;2023-07-24T01:03:12;100273.38;;;19.97
18161;BMP280;9205;52.032;4.314;2023-07-24T01:05:39;100273.16;;;20.00
18161;BMP280;9205;52.032;4.314;2023-07-24T01:08:07;100278.41;;;19.98
18161;BMP280;9205;52.032;4.314;2023-07-24T01:10:36;100268.47;;;19.92
18161;BMP280;9205;52.032;4.314;2023-07-24T01:13:08;100269.53;;;19.90
18161;BMP280;9205;52.032;4.314;2023-07-24T01:15:42;100272.41;;;19.85
18161;BMP280;9205;52.032;4.314;2023-07-24T01:18:15;100266.34;;;19.86
18161;BMP280;9205;52.032;4.314;2023-07-24T01:20:50;100259.41;;;19.87
18161;BMP280;9205;52.032;4.314;2023-07-24T01:23:35;100258.50;;;19.88
18161;BMP280;9205;52.032;4.314;2023-07-24T01:26:07;100257.56;;;19.89
18161;BMP280;9205;52.032;4.314;2023-07-24T01:28:35;100250.34;;;19.81
18161;BMP280;9205;52.032;4.314;2023-07-24T01:31:02;100248.41;;;19.85
18161;BMP280;9205;52.032;4.314;2023-07-24T01:33:30;100253.34;;;19.88
18161;BMP280;9205;52.032;4.314;2023-07-24T01:36:02;100256.53;;;19.91
18161;BMP280;9205;52.032;4.314;2023-07-24T01:38:33;100248.19;;;19.88
18161;BMP280;9205;52.032;4.314;2023-07-24T01:41:02;100252.59;;;19.86
18161;BMP280;9205;52.032;4.314;2023-07-24T01:43:31;100246.34;;;19.77
18161;BMP280;9205;52.032;4.314;2023-07-24T01:45:59;100239.34;;;19.79
18161;BMP280;9205;52.032;4.314;2023-07-24T01:48:26;100239.22;;;19.81
18161;BMP280;9205;52.032;4.314;2023-07-24T01:50:54;100247.75;;;19.81
18161;BMP280;9205;52.032;4.314;2023-07-24T01:53:21;100242.41;;;19.84
18161;BMP280;9205;52.032;4.314;2023-07-24T01:55:48;100250.34;;;19.81
18161;BMP280;9205;52.032;4.314;2023-07-24T01:58:15;100245.00;;;19.84
18161;BMP280;9205;52.032;4.314;2023-07-24T02:00:44;100232.53;;;19.78
18161;BMP280;9205;52.032;4.314;2023-07-24T02:03:11;100234.69;;;19.84
18161;BMP280;9205;52.032;4.314;2023-07-24T02:05:38;100219.00;;;19.87
18161;BMP280;9205;52.032;4.314;2023-07-24T02:08:05;100213.75;;;19.89
18161;BMP280;9205;52.032;4.314;2023-07-24T02:10:36;100223.03;;;19.91
18161;BMP280;9205;52.032;4.314;2023-07-24T02:13:04;100224.25;;;19.86
18161;BMP280;9205;52.032;4.314;2023-07-24T02:15:33;100221.28;;;19.79
18161;BMP280;9205;52.032;4.314;2023-07-24T02:18:02;100221.59;;;19.75
18161;BMP280;9205;52.032;4.314;2023-07-24T02:20:29;100228.41;;;19.76
18161;BMP280;9205;52.032;4.314;2023-07-24T02:22:57;100230.69;;;19.80
18161;BMP280;9205;52.032;4.314;2023-07-24T02:25:24;100211.19;;;19.76
18161;BMP280;9205;52.032;4.314;2023-07-24T02:27:51;100201.19;;;19.72
18161;BMP280;9205;52.032;4.314;2023-07-24T02:30:18;100210.88;;;19.68
18161;BMP280;9205;52.032;4.314;2023-07-24T02:32:45;100216.34;;;19.76
18161;BMP280;9205;52.032;4.314;2023-07-24T02:35:16;100209.03;;;19.70
18161;BMP280;9205;52.032;4.314;2023-07-24T02:37:45;100202.34;;;19.80
18161;BMP280;9205;52.032;4.314;2023-07-24T02:40:13;100181.59;;;19.82
18161;BMP280;9205;52.032;4.314;2023-07-24T02:42:40;100198.31;;;19.76
18161;BMP280;9205;52.032;4.314;2023-07-24T02:45:08;100191.06;;;19.81
18161;BMP280;9205;52.032;4.314;2023-07-24T02:47:36;100199.34;;;19.74
18161;BMP280;9205;52.032;4.314;2023-07-24T02:50:06;100187.50;;;19.71
18161;BMP280;9205;52.032;4.314;2023-07-24T02:52:34;100182.66;;;19.67
18161;BMP280;9205;52.032;4.314;2023-07-24T02:55:02;100178.72;;;19.62
18161;BMP280;9205;52.032;4.314;2023-07-24T02:57:29;100186.78;;;19.57
18161;BMP280;9205;52.032;4.314;2023-07-24T02:59:56;100189.88;;;19.50
18161;BMP280;9205;52.032;4.314;2023-07-24T03:02:24;100187.81;;;19.55
18161;BMP280;9205;52.032;4.314;2023-07-24T03:04:51;100188.13;;;19.50
18161;BMP280;9205;52.032;4.314;2023-07-24T03:07:18;100193.56;;;19.46
18161;BMP280;9205;52.032;4.314;2023-07-24T03:09:50;100204.63;;;19.48
18161;BMP280;9205;52.032;4.314;2023-07-24T03:12:18;100207.19;;;19.48
18161;BMP280;9205;52.032;4.314;2023-07-24T03:14:45;100194.00;;;19.52
18161;BMP280;9205;52.032;4.314;2023-07-24T03:17:12;100199.78;;;19.56
18161;BMP280;9205;52.032;4.314;2023-07-24T03:19:41;100193.56;;;19.58
18161;BMP280;9205;52.032;4.314;2023-07-24T03:22:08;100190.81;;;19.61
18161;BMP280;9205;52.032;4.314;2023-07-24T03:24:35;100190.19;;;19.58
18161;BMP280;9205;52.032;4.314;2023-07-24T03:27:04;100186.88;;;19.56
18161;BMP280;9205;52.032;4.314;2023-07-24T03:29:31;100187.81;;;19.55
18161;BMP280;9205;52.032;4.314;2023-07-24T03:31:59;100193.47;;;19.60
18161;BMP280;9205;52.032;4.314;2023-07-24T03:34:26;100185.34;;;19.53
18161;BMP280;9205;52.032;4.314;2023-07-24T03:36:53;100189.88;;;19.50
18161;BMP280;9205;52.032;4.314;2023-07-24T03:39:20;100185.53;;;19.50
18161;BMP280;9205;52.032;4.314;2023-07-24T03:41:48;100183.69;;;19.52
18161;BMP280;9205;52.032;4.314;2023-07-24T03:44:16;100182.84;;;19.52
18161;BMP280;9205;52.032;4.314;2023-07-24T03:46:44;100181.19;;;19.51
18161;BMP280;9205;52.032;4.314;2023-07-24T03:49:11;100175.84;;;19.54
18161;BMP280;9205;52.032;4.314;2023-07-24T03:51:38;100187.81;;;19.55
18161;BMP280;9205;52.032;4.314;2023-07-24T03:54:06;100182.34;;;19.59
18161;BMP280;9205;52.032;4.314;2023-07-24T03:56:33;100181.19;;;19.63
18161;BMP280;9205;52.032;4.314;2023-07-24T03:59:00;100174.81;;;19.68
18161;BMP280;9205;52.032;4.314;2023-07-24T04:01:29;100186.88;;;19.68
18161;BMP280;9205;52.032;4.314;2023-07-24T04:03:56;100182.66;;;19.67
18161;BMP280;9205;52.032;4.314;2023-07-24T04:06:24;100182.53;;;19.68
18161;BMP280;9205;52.032;4.314;2023-07-24T04:08:51;100184.19;;;19.69
18161;BMP280;9205;52.032;4.314;2023-07-24T04:11:18;100173.16;;;19.67
18161;BMP280;9205;52.032;4.314;2023-07-24T04:13:45;100183.47;;;19.67
18161;BMP280;9205;52.032;4.314;2023-07-24T04:16:12;100179.97;;;19.68
18161;BMP280;9205;52.032;4.314;2023-07-24T04:18:41;100186.97;;;19.66
18161;BMP280;9205;52.032;4.314;2023-07-24T04:21:08;100184.50;;;19.65
18161;BMP280;9205;52.032;4.314;2023-07-24T04:23:35;100182.84;;;19.64
18161;BMP280;9205;52.032;4.314;2023-07-24T04:26:02;100176.47;;;19.69
18161;BMP280;9205;52.032;4.314;2023-07-24T04:28:29;100181.50;;;19.71
18161;BMP280;9205;52.032;4.314;2023-07-24T04:31:00;100183.59;;;19.66
18161;BMP280;9205;52.032;4.314;2023-07-24T04:33:27;100186.97;;;19.66
18161;BMP280;9205;52.032;4.314;2023-07-24T04:35:56;100185.34;;;19.66
18161;BMP280;9205;52.032;4.314;2023-07-24T04:38:23;100191.72;;;19.72
18161;BMP280;9205;52.032;4.314;2023-07-24T04:40:50;100185.53;;;19.75
18161;BMP280;9205;52.032;4.314;2023-07-24T04:43:18;100184.31;;;19.68
18161;BMP280;9205;52.032;4.314;2023-07-24T04:45:45;100190.38;;;19.67
18161;BMP280;9205;52.032;4.314;2023-07-24T04:48:12;100189.47;;;19.68
18161;BMP280;9205;52.032;4.314;2023-07-24T04:50:39;100186.03;;;19.67
18161;BMP280;9205;52.032;4.314;2023-07-24T04:53:08;100185.22;;;19.67
18161;BMP280;9205;52.032;4.314;2023-07-24T04:55:35;100193.69;;;19.69
18161;BMP280;9205;52.032;4.314;2023-07-24T04:58:02;100189.84;;;19.74
18161;BMP280;9205;52.032;4.314;2023-07-24T05:00:29;100181.63;;;19.69
18161;BMP280;9205;52.032;4.314;2023-07-24T05:02:57;100182.63;;;19.79
18161;BMP280;9205;52.032;4.314;2023-07-24T05:05:24;100180.06;;;19.79
18161;BMP280;9205;52.032;4.314;2023-07-24T05:07:51;100180.56;;;19.72
18161;BMP280;9205;52.032;4.314;2023-07-24T05:10:19;100174.38;;;19.74
18161;BMP280;9205;52.032;4.314;2023-07-24T05:12:47;100175.84;;;19.78
18161;BMP280;9205;52.032;4.314;2023-07-24T05:15:16;100179.53;;;19.74
18161;BMP280;9205;52.032;4.314;2023-07-24T05:17:43;100186.56;;;19.85
18161;BMP280;9205;52.032;4.314;2023-07-24T05:20:11;100177.50;;;19.79
18161;BMP280;9205;52.032;4.314;2023-07-24T05:22:38;100179.13;;;19.80
18161;BMP280;9205;52.032;4.314;2023-07-24T05:25:07;100182.81;;;19.89
18161;BMP280;9205;52.032;4.314;2023-07-24T05:27:36;100180.75;;;19.94
18161;BMP280;9205;52.032;4.314;2023-07-24T05:30:05;100180.75;;;19.94
18161;BMP280;9205;52.032;4.314;2023-07-24T05:32:32;100179.94;;;19.93
18161;BMP280;9205;52.032;4.314;2023-07-24T05:35:00;100171.59;;;19.90
18161;BMP280;9205;52.032;4.314;2023-07-24T05:37:27;100173.94;;;19.93
18161;BMP280;9205;52.032;4.314;2023-07-24T05:39:54;100169.94;;;20.01
18161;BMP280;9205;52.032;4.314;2023-07-24T05:42:21;100174.88;;;20.04
18161;BMP280;9205;52.032;4.314;2023-07-24T05:44:50;100179.81;;;20.07
18161;BMP280;9205;52.032;4.314;2023-07-24T05:47:17;100181.28;;;19.99
18161;BMP280;9205;52.032;4.314;2023-07-24T05:49:44;100188.19;;;19.98
18161;BMP280;9205;52.032;4.314;2023-07-24T05:52:11;100191.69;;;19.97
18161;BMP280;9205;52.032;4.314;2023-07-24T05:54:57;100201.00;;;20.00
18161;BMP280;9205;52.032;4.314;2023-07-24T05:57:25;100186.44;;;19.99
18161;BMP280;9205;52.032;4.314;2023-07-24T05:59:53;100191.81;;;19.96
18161;BMP280;9205;52.032;4.314;2023-07-24T06:02:22;100198.28;;;20.01
18161;BMP280;9205;52.032;4.314;2023-07-24T06:04:49;100191.00;;;19.95
18161;BMP280;9205;52.032;4.314;2023-07-24T06:07:16;100184.69;;;19.99
18161;BMP280;9205;52.032;4.314;2023-07-24T06:09:43;100183.16;;;19.97
18161;BMP280;9205;52.032;4.314;2023-07-24T06:12:11;100190.25;;;19.93
18161;BMP280;9205;52.032;4.314;2023-07-24T06:14:38;100194.78;;;20.02
18161;BMP280;9205;52.032;4.314;2023-07-24T06:17:06;100204.88;;;20.05
18161;BMP280;9205;52.032;4.314;2023-07-24T06:19:34;100203.75;;;20.09
18161;BMP280;9205;52.032;4.314;2023-07-24T06:22:02;100204.56;;;20.10
18161;BMP280;9205;52.032;4.314;2023-07-24T06:24:29;100210.56;;;20.10
18161;BMP280;9205;52.032;4.314;2023-07-24T06:26:56;100208.66;;;20.12
18161;BMP280;9205;52.032;4.314;2023-07-24T06:29:23;100213.41;;;20.18
18161;BMP280;9205;52.032;4.314;2023-07-24T06:31:51;100211.44;;;20.22
18161;BMP280;9205;52.032;4.314;2023-07-24T06:34:20;100218.78;;;20.15
18161;BMP280;9205;52.032;4.314;2023-07-24T06:36:47;100208.25;;;20.18
18161;BMP280;9205;52.032;4.314;2023-07-24T06:39:14;100209.78;;;20.21
18161;BMP280;9205;52.032;4.314;2023-07-24T06:41:42;100206.91;;;20.25
18161;BMP280;9205;52.032;4.314;2023-07-24T06:44:09;100209.97;;;20.30
18161;BMP280;9205;52.032;4.314;2023-07-24T06:46:36;100213.56;;;20.40
18161;BMP280;9205;52.032;4.314;2023-07-24T06:49:03;100203.50;;;20.48
18161;BMP280;9205;52.032;4.314;2023-07-24T06:51:32;100210.00;;;20.53
18161;BMP280;9205;52.032;4.314;2023-07-24T06:53:59;100217.47;;;20.46
18161;BMP280;9205;52.032;4.314;2023-07-24T06:56:26;100220.38;;;20.41
18161;BMP280;9205;52.032;4.314;2023-07-24T06:58:54;100222.00;;;20.42
18161;BMP280;9205;52.032;4.314;2023-07-24T07:01:21;100216.13;;;20.40
18161;BMP280;9205;52.032;4.314;2023-07-24T07:03:48;100205.94;;;20.39
18161;BMP280;9205;52.032;4.314;2023-07-24T07:06:16;100213.66;;;20.39
18161;BMP280;9205;52.032;4.314;2023-07-24T07:08:44;100208.50;;;20.39
18161;BMP280;9205;52.032;4.314;2023-07-24T07:11:12;100206.94;;;20.36
18161;BMP280;9205;52.032;4.314;2023-07-24T07:13:39;100196.03;;;20.33
18161;BMP280;9205;52.032;4.314;2023-07-24T07:16:06;100212.03;;;20.38
18161;BMP280;9205;52.032;4.314;2023-07-24T07:18:33;100206.28;;;20.45
18161;BMP280;9205;52.032;4.314;2023-07-24T07:21:00;100201.41;;;20.53
18161;BMP280;9205;52.032;4.314;2023-07-24T07:23:28;100197.09;;;20.53
18161;BMP280;9205;52.032;4.314;2023-07-24T07:25:56;100197.69;;;20.57
18161;BMP280;9205;52.032;4.314;2023-07-24T07:28:23;100206.09;;;20.48
18161;BMP280;9205;52.032;4.314;2023-07-24T07:30:50;100202.31;;;20.41
18161;BMP280;9205;52.032;4.314;2023-07-24T07:33:18;100195.25;;;20.43
18161;BMP280;9205;52.032;4.314;2023-07-24T07:35:47;100188.97;;;20.47
18161;BMP280;9205;52.032;4.314;2023-07-24T07:38:14;100201.88;;;20.47
18161;BMP280;9205;52.032;4.314;2023-07-24T07:40:42;100196.50;;;20.50
18161;BMP280;9205;52.032;4.314;2023-07-24T07:43:10;100196.50;;;20.50
18161;BMP280;9205;52.032;4.314;2023-07-24T07:45:40;100190.88;;;20.56
18161;BMP280;9205;52.032;4.314;2023-07-24T07:48:08;100189.03;;;20.58
18161;BMP280;9205;52.032;4.314;2023-07-24T07:50:35;100190.72;;;20.70
18161;BMP280;9205;52.032;4.314;2023-07-24T07:53:02;100193.78;;;20.75
18161;BMP280;9205;52.032;4.314;2023-07-24T07:55:29;100185.63;;;20.81
18161;BMP280;9205;52.032;4.314;2023-07-24T07:57:57;100194.66;;;20.86
18161;BMP280;9205;52.032;4.314;2023-07-24T08:00:25;100192.41;;;20.82
18161;BMP280;9205;52.032;4.314;2023-07-24T08:02:52;100198.63;;;20.79
18161;BMP280;9205;52.032;4.314;2023-07-24T08:05:20;100203.00;;;20.79
18161;BMP280;9205;52.032;4.314;2023-07-24T08:07:47;100191.53;;;20.94
18161;BMP280;9205;52.032;4.314;2023-07-24T08:10:14;100191.22;;;20.98
18161;BMP280;9205;52.032;4.314;2023-07-24T08:12:42;100187.34;;;21.04
18161;BMP280;9205;52.032;4.314;2023-07-24T08:15:10;100190.28;;;21.10
18161;BMP280;9205;52.032;4.314;2023-07-24T08:17:39;100196.56;;;21.19
18161;BMP280;9205;52.032;4.314;2023-07-24T08:20:07;100194.44;;;21.24
18161;BMP280;9205;52.032;4.314;2023-07-24T08:22:34;100189.94;;;21.15
18161;BMP280;9205;52.032;4.314;2023-07-24T08:25:02;100199.34;;;21.16
18161;BMP280;9205;52.032;4.314;2023-07-24T08:27:29;100195.84;;;21.17
18161;BMP280;9205;52.032;4.314;2023-07-24T08:29:56;100200.25;;;21.04
18161;BMP280;9205;52.032;4.314;2023-07-24T08:32:23;100198.56;;;20.92
18161;BMP280;9205;52.032;4.314;2023-07-24T08:34:52;100184.59;;;20.94
18161;BMP280;9205;52.032;4.314;2023-07-24T08:37:19;100195.50;;;20.87
18161;BMP280;9205;52.032;4.314;2023-07-24T08:39:46;100187.09;;;20.96
18161;BMP280;9205;52.032;4.314;2023-07-24T08:42:14;100192.47;;;20.93
18161;BMP280;9205;52.032;4.314;2023-07-24T08:44:43;100200.81;;;20.96
18161;BMP280;9205;52.032;4.314;2023-07-24T08:47:11;100190.97;;;21.01
18161;BMP280;9205;52.032;4.314;2023-07-24T08:49:39;100191.47;;;21.06
18161;BMP280;9205;52.032;4.314;2023-07-24T08:52:10;100196.38;;;21.09
18161;BMP280;9205;52.032;4.314;2023-07-24T08:54:38;100194.78;;;21.08
18161;BMP280;9205;52.032;4.314;2023-07-24T08:57:07;100194.19;;;21.16
18161;BMP280;9205;52.032;4.314;2023-07-24T08:59:34;100191.72;;;21.25
18161;BMP280;9205;52.032;4.314;2023-07-24T09:02:02;100188.72;;;21.31
18161;BMP280;9205;52.032;4.314;2023-07-24T09:04:29;100183.06;;;21.48
18161;BMP280;9205;52.032;4.314;2023-07-24T09:06:57;100178.41;;;21.53
18161;BMP280;9205;52.032;4.314;2023-07-24T09:09:30;100176.44;;;21.56
18161;BMP280;9205;52.032;4.314;2023-07-24T09:11:58;100174.03;;;21.42
18161;BMP280;9205;52.032;4.314;2023-07-24T09:14:28;100182.03;;;21.39
18161;BMP280;9205;52.032;4.314;2023-07-24T09:17:04;100166.28;;;21.53
18161;BMP280;9205;52.032;4.314;2023-07-24T09:19:32;100168.88;;;21.53
18161;BMP280;9205;52.032;4.314;2023-07-24T09:22:10;100154.81;;;21.68
18161;BMP280;9205;52.032;4.314;2023-07-24T09:24:50;100165.38;;;21.76
18161;BMP280;9205;52.032;4.314;2023-07-24T09:27:18;100172.19;;;21.66
18161;BMP280;9205;52.032;4.314;2023-07-24T09:29:46;100172.63;;;21.38
18161;BMP280;9205;52.032;4.314;2023-07-24T09:32:20;100172.63;;;21.38
18161;BMP280;9205;52.032;4.314;2023-07-24T09:34:47;100166.75;;;21.36
18161;BMP280;9205;52.032;4.314;2023-07-24T09:37:27;100174.97;;;21.41
18161;BMP280;9205;52.032;4.314;2023-07-24T09:39:56;100177.47;;;21.54
18161;BMP280;9205;52.032;4.314;2023-07-24T09:42:34;100183.94;;;21.59
18161;BMP280;9205;52.032;4.314;2023-07-24T09:45:03;100182.13;;;21.49
18161;BMP280;9205;52.032;4.314;2023-07-24T09:47:31;100182.72;;;21.41
18161;BMP280;9205;52.032;4.314;2023-07-24T09:49:59;100176.38;;;21.34
18161;BMP280;9205;52.032;4.314;2023-07-24T09:52:31;100179.88;;;21.23
18161;BMP280;9205;52.032;4.314;2023-07-24T09:55:10;100183.28;;;21.23
18161;BMP280;9205;52.032;4.314;2023-07-24T09:57:39;100180.13;;;21.20
18161;BMP280;9205;52.032;4.314;2023-07-24T10:00:08;100182.47;;;21.23
18161;BMP280;9205;52.032;4.314;2023-07-24T10:02:36;100175.66;;;21.32
18161;BMP280;9205;52.032;4.314;2023-07-24T10:05:05;100178.75;;;21.48
18161;BMP280;9205;52.032;4.314;2023-07-24T10:07:33;100171.09;;;21.47
18161;BMP280;9205;52.032;4.314;2023-07-24T10:10:03;100173.38;;;21.62
18161;BMP280;9205;52.032;4.314;2023-07-24T10:12:32;100172.06;;;21.79
18161;BMP280;9205;52.032;4.314;2023-07-24T10:15:01;100157.59;;;21.98
18161;BMP280;9205;52.032;4.314;2023-07-24T10:17:35;100167.22;;;22.07
18161;BMP280;9205;52.032;4.314;2023-07-24T10:20:05;100175.81;;;21.97
18161;BMP280;9205;52.032;4.314;2023-07-24T10:22:33;100169.84;;;21.96
18161;BMP280;9205;52.032;4.314;2023-07-24T10:25:01;100182.53;;;21.88
18161;BMP280;9205;52.032;4.314;2023-07-24T10:27:29;100167.97;;;21.87
18161;BMP280;9205;52.032;4.314;2023-07-24T10:30:00;100169.50;;;21.90
18161;BMP280;9205;52.032;4.314;2023-07-24T10:32:28;100173.59;;;21.92
18161;BMP280;9205;52.032;4.314;2023-07-24T10:34:58;100158.66;;;22.07
18161;BMP280;9205;52.032;4.314;2023-07-24T10:37:33;100154.50;;;22.26
18161;BMP280;9205;52.032;4.314;2023-07-24T10:40:04;100161.19;;;22.39
18161;BMP280;9205;52.032;4.314;2023-07-24T10:42:31;100169.03;;;22.49
18161;BMP280;9205;52.032;4.314;2023-07-24T10:45:05;100169.97;;;22.48
18161;BMP280;9205;52.032;4.314;2023-07-24T10:47:33;100175.03;;;22.49
18161;BMP280;9205;52.032;4.314;2023-07-24T10:50:00;100169.13;;;22.47
18161;BMP280;9205;52.032;4.314;2023-07-24T10:52:29;100183.13;;;22.56
18161;BMP280;9205;52.032;4.314;2023-07-24T10:54:56;100176.88;;;22.58
18161;BMP280;9205;52.032;4.314;2023-07-24T10:57:29;100182.69;;;22.51
18161;BMP280;9205;52.032;4.314;2023-07-24T10:59:56;100184.59;;;22.16
18161;BMP280;9205;52.032;4.314;2023-07-24T11:02:24;100196.84;;;22.03
18161;BMP280;9205;52.032;4.314;2023-07-24T11:04:51;100185.75;;;22.23
18161;BMP280;9205;52.032;4.314;2023-07-24T11:07:20;100190.72;;;22.26
18161;BMP280;9205;52.032;4.314;2023-07-24T11:09:47;100191.53;;;22.26
18161;BMP280;9205;52.032;4.314;2023-07-24T11:12:17;100192.47;;;22.36
18161;BMP280;9205;52.032;4.314;2023-07-24T11:14:49;100197.06;;;22.22
18161;BMP280;9205;52.032;4.314;2023-07-24T11:17:17;100201.31;;;22.12
18161;BMP280;9205;52.032;4.314;2023-07-24T11:19:45;100205.28;;;22.16
18161;BMP280;9205;52.032;4.314;2023-07-24T11:22:12;100199.06;;;22.29
18161;BMP280;9205;52.032;4.314;2023-07-24T11:24:46;100210.16;;;22.63
18161;BMP280;9205;52.032;4.314;2023-07-24T11:27:15;100211.50;;;22.46
18161;BMP280;9205;52.032;4.314;2023-07-24T11:29:49;100206.13;;;22.70
18161;BMP280;9205;52.032;4.314;2023-07-24T11:32:20;100202.97;;;22.66
18161;BMP280;9205;52.032;4.314;2023-07-24T11:34:49;100191.00;;;22.86
18161;BMP280;9205;52.032;4.314;2023-07-24T11:37:18;100197.03;;;23.06
18161;BMP280;9205;52.032;4.314;2023-07-24T11:39:56;100203.41;;;23.02
18161;BMP280;9205;52.032;4.314;2023-07-24T11:42:25;100194.22;;;22.98
18161;BMP280;9205;52.032;4.314;2023-07-24T11:44:54;100199.09;;;22.92
18161;BMP280;9205;52.032;4.314;2023-07-24T11:47:21;100188.66;;;22.83
18161;BMP280;9205;52.032;4.314;2023-07-24T11:50:00;100198.22;;;22.71
18161;BMP280;9205;52.032;4.314;2023-07-24T11:52:38;100202.78;;;22.47
18161;BMP280;9205;52.032;4.314;2023-07-24T11:55:07;100212.34;;;22.36
18161;BMP280;9205;52.032;4.314;2023-07-24T11:57:35;100212.34;;;22.36
18161;BMP280;9205;52.032;4.314;2023-07-24T12:00:16;100223.41;;;22.16
18161;BMP280;9205;52.032;4.314;2023-07-24T12:02:44;100221.56;;;21.96
18161;BMP280;9205;52.032;4.314;2023-07-24T12:05:11;100215.91;;;21.80
18161;BMP280;9205;52.032;4.314;2023-07-24T12:07:38;100222.72;;;21.81
18161;BMP280;9205;52.032;4.314;2023-07-24T12:10:07;100224.13;;;21.74
18161;BMP280;9205;52.032;4.314;2023-07-24T12:12:39;100218.97;;;21.85
18161;BMP280;9205;52.032;4.314;2023-07-24T12:15:10;100227.88;;;21.92
18161;BMP280;9205;52.032;4.314;2023-07-24T12:17:37;100228.25;;;21.88
18161;BMP280;9205;52.032;4.314;2023-07-24T12:20:07;100228.72;;;21.82
18161;BMP280;9205;52.032;4.314;2023-07-24T12:22:35;100229.28;;;21.74
18161;BMP280;9205;52.032;4.314;2023-07-24T12:25:03;100232.13;;;21.71
18161;BMP280;9205;52.032;4.314;2023-07-24T12:27:32;100230.78;;;21.55
18161;BMP280;9205;52.032;4.314;2023-07-24T12:29:59;100235.16;;;21.54
18161;BMP280;9205;52.032;4.314;2023-07-24T12:32:28;100236.47;;;21.36
18161;BMP280;9205;52.032;4.314;2023-07-24T12:34:56;100243.09;;;21.40
18161;BMP280;9205;52.032;4.314;2023-07-24T12:37:23;100236.06;;;21.53
18161;BMP280;9205;52.032;4.314;2023-07-24T12:39:50;100233.28;;;21.67
18161;BMP280;9205;52.032;4.314;2023-07-24T12:42:18;100237.41;;;21.81
18161;BMP280;9205;52.032;4.314;2023-07-24T12:44:45;100234.25;;;21.88
18161;BMP280;9205;52.032;4.314;2023-07-24T12:47:12;100232.13;;;21.93
18161;BMP280;9205;52.032;4.314;2023-07-24T12:49:41;100240.13;;;22.12
18161;BMP280;9205;52.032;4.314;2023-07-24T12:52:08;100235.75;;;22.02
18161;BMP280;9205;52.032;4.314;2023-07-24T12:54:35;100241.75;;;21.91
18161;BMP280;9205;52.032;4.314;2023-07-24T12:57:03;100249.16;;;21.96
18161;BMP280;9205;52.032;4.314;2023-07-24T12:59:31;100247.16;;;21.88
18161;BMP280;9205;52.032;4.314;2023-07-24T13:01:58;100241.63;;;21.82
18161;BMP280;9205;52.032;4.314;2023-07-24T13:04:25;100240.34;;;21.87
18161;BMP280;9205;52.032;4.314;2023-07-24T13:06:54;100242.44;;;21.82
18161;BMP280;9205;52.032;4.314;2023-07-24T13:09:21;100241.75;;;21.58
18161;BMP280;9205;52.032;4.314;2023-07-24T13:11:49;100251.31;;;21.45
18161;BMP280;9205;52.032;4.314;2023-07-24T13:14:17;100254.47;;;21.38
18161;BMP280;9205;52.032;4.314;2023-07-24T13:16:45;100256.88;;;21.28
18161;BMP280;9205;52.032;4.314;2023-07-24T13:19:12;100263.53;;;21.09
18161;BMP280;9205;52.032;4.314;2023-07-24T13:21:39;100269.22;;;21.25
18161;BMP280;9205;52.032;4.314;2023-07-24T13:24:10;100258.72;;;21.39
18161;BMP280;9205;52.032;4.314;2023-07-24T13:26:37;100263.16;;;21.37
18161;BMP280;9205;52.032;4.314;2023-07-24T13:29:05;100262.91;;;21.40
18161;BMP280;9205;52.032;4.314;2023-07-24T13:31:32;100268.31;;;21.37
18161;BMP280;9205;52.032;4.314;2023-07-24T13:34:01;100271.47;;;21.29
18161;BMP280;9205;52.032;4.314;2023-07-24T13:36:28;100281.88;;;21.17
18161;BMP280;9205;52.032;4.314;2023-07-24T13:38:55;100273.69;;;21.00
18161;BMP280;9205;52.032;4.314;2023-07-24T13:41:24;100279.00;;;21.09
18161;BMP280;9205;52.032;4.314;2023-07-24T13:43:51;100284.81;;;21.24
18161;BMP280;9205;52.032;4.314;2023-07-24T13:46:18;100301.03;;;21.26
18161;BMP280;9205;52.032;4.314;2023-07-24T13:48:46;100295.88;;;21.26
18161;BMP280;9205;52.032;4.314;2023-07-24T13:51:13;100285.75;;;21.23
18161;BMP280;9205;52.032;4.314;2023-07-24T13:53:40;100308.13;;;21.34
18161;BMP280;9205;52.032;4.314;2023-07-24T13:56:07;100295.22;;;21.34
18161;BMP280;9205;52.032;4.314;2023-07-24T13:58:36;100297.88;;;21.22
18161;BMP280;9205;52.032;4.314;2023-07-24T14:01:04;100295.34;;;21.10
18161;BMP280;9205;52.032;4.314;2023-07-24T14:03:33;100308.78;;;21.02
18161;BMP280;9205;52.032;4.314;2023-07-24T14:06:00;100312.16;;;20.92
18161;BMP280;9205;52.032;4.314;2023-07-24T14:08:27;100321.38;;;20.83
18161;BMP280;9205;52.032;4.314;2023-07-24T14:10:55;100326.06;;;20.66
18161;BMP280;9205;52.032;4.314;2023-07-24T14:13:22;100332.09;;;20.29
18161;BMP280;9205;52.032;4.314;2023-07-24T14:15:51;100333.56;;;20.21